Time;durP1;ratioP1;P1;durP2;ratioP2;P2;SDS_P1;SDS_P2;PMS_P1;PMS_P2;Temp;Humidity;BMP_temperature;BMP_pressure;BME280_temperature;BME280_humidity;BME280_pressure;Samples;Min_cycle;Max_cycle;Signal;HPM_P1;HPM_P2
2021/01/24 00:00:00;;;;;;;5.32;3.00;;;10.60;81.10;;;;;;5073060;28;20060;-49
2021/01/24 00:02:26;;;;;;;4.88;2.65;;;10.50;81.30;;;;;;5073069;28;20020;-49
2021/01/24 00:04:52;;;;;;;2.90;2.00;;;10.50;81.30;;;;;;5037950;28;20036;-49
2021/01/24 00:07:18;;;;;;;2.95;1.90;;;10.40;81.50;;;;;;5073127;28;20450;-49
2021/01/24 00:09:44;;;;;;;5.00;2.42;;;10.30;81.70;;;;;;5072989;28;20099;-49
2021/01/24 00:12:09;;;;;;;6.72;3.80;;;10.30;81.60;;;;;;5021407;28;20045;-49
2021/01/24 00:14:35;;;;;;;6.57;4.38;;;10.30;81.80;;;;;;5021304;28;20119;-49
2021/01/24 00:17:01;;;;;;;8.52;4.22;;;10.30;81.30;;;;;;5073017;28;20354;-49
2021/01/24 00:19:27;;;;;;;5.57;3.30;;;10.30;81.40;;;;;;5072913;28;20085;-49
2021/01/24 00:21:52;;;;;;;5.93;3.15;;;10.30;81.20;;;;;;5072842;28;20029;-49
2021/01/24 00:24:18;;;;;;;8.10;3.72;;;10.30;81.50;;;;;;5072873;28;20478;-49
2021/01/24 00:26:44;;;;;;;6.68;3.63;;;10.30;81.10;;;;;;5021621;28;20037;-49
2021/01/24 00:29:09;;;;;;;6.22;3.40;;;10.40;80.90;;;;;;5023387;28;20040;-49
2021/01/24 00:31:35;;;;;;;6.03;2.90;;;10.20;80.90;;;;;;5076675;28;20379;-49
2021/01/24 00:34:02;;;;;;;5.57;2.42;;;10.10;81.50;;;;;;5076627;28;20024;-49
2021/01/24 00:36:27;;;;;;;4.55;2.55;;;10.00;82.40;;;;;;5076880;28;20103;-49
2021/01/24 00:38:53;;;;;;;3.53;1.98;;;9.80;83.30;;;;;;5025243;28;20139;-49
2021/01/24 00:41:19;;;;;;;3.80;1.90;;;9.80;83.50;;;;;;5076396;28;20100;-49
2021/01/24 00:43:44;;;;;;;3.38;1.60;;;9.80;83.60;;;;;;5076269;28;20509;-49
2021/01/24 00:46:10;;;;;;;3.45;1.38;;;9.60;84.10;;;;;;5076764;28;20075;-49
2021/01/24 00:48:37;;;;;;;3.65;1.35;;;9.60;84.40;;;;;;5076459;28;20025;-49
2021/01/24 00:51:04;;;;;;;2.53;1.52;;;9.40;85.10;;;;;;5041200;28;20040;-49
2021/01/24 00:53:30;;;;;;;1.33;1.00;;;9.30;85.40;;;;;;5025007;28;20387;-49
2021/01/24 00:55:56;;;;;;;3.33;2.28;;;9.30;85.30;;;;;;5076255;28;20468;-49
2021/01/24 00:58:22;;;;;;;3.58;2.13;;;9.10;85.70;;;;;;5076276;28;20047;-49
2021/01/24 01:00:48;;;;;;;3.25;1.90;;;9.00;86.80;;;;;;5076638;28;20017;-49
2021/01/24 01:03:14;;;;;;;4.63;2.08;;;9.00;86.90;;;;;;5076000;28;20039;-49
2021/01/24 01:05:40;;;;;;;2.88;1.30;;;8.90;87.00;;;;;;5075925;28;20365;-49
2021/01/24 01:08:06;;;;;;;2.38;1.40;;;9.00;86.90;;;;;;5075970;28;20032;-49
2021/01/24 01:10:33;;;;;;;2.65;1.58;;;8.90;87.20;;;;;;5076129;28;20432;-49
2021/01/24 01:12:59;;;;;;;1.40;0.80;;;8.80;87.60;;;;;;5075989;28;20086;-49
2021/01/24 01:15:25;;;;;;;2.58;1.58;;;8.60;88.30;;;;;;5075876;28;20044;-49
2021/01/24 01:17:51;;;;;;;4.03;1.83;;;8.60;89.00;;;;;;5024495;28;20029;-49
2021/01/24 01:20:17;;;;;;;5.35;2.63;;;8.60;89.00;;;;;;5075827;28;20036;-49
2021/01/24 01:22:43;;;;;;;4.95;2.55;;;8.70;88.20;;;;;;5075739;28;20035;-49
2021/01/24 01:25:10;;;;;;;7.07;2.90;;;8.80;87.80;;;;;;5075684;28;20029;-49
2021/01/24 01:27:36;;;;;;;6.35;2.90;;;8.80;87.70;;;;;;5023999;28;20388;-49
2021/01/24 01:30:05;;;;;;;1.95;1.05;;;8.70;88.30;;;;;;5075554;28;20106;-49
2021/01/24 01:32:31;;;;;;;2.58;1.40;;;8.70;89.00;;;;;;5075613;28;20032;-49
2021/01/24 01:34:56;;;;;;;1.95;1.20;;;8.60;88.20;;;;;;5075706;28;20494;-49
2021/01/24 01:37:22;;;;;;;2.15;0.95;;;8.70;88.20;;;;;;5075603;28;20024;-49
2021/01/24 01:39:48;;;;;;;3.65;1.35;;;8.70;87.70;;;;;;5074712;28;20052;-49
2021/01/24 01:42:15;;;;;;;2.95;1.52;;;8.70;87.70;;;;;;5056887;28;20033;-50
2021/01/24 01:44:41;;;;;;;5.05;1.92;;;8.60;88.40;;;;;;5075683;28;20025;-49
2021/01/24 01:47:09;;;;;;;4.13;2.00;;;8.50;89.10;;;;;;5075543;28;20037;-49
2021/01/24 01:49:35;;;;;;;4.18;1.45;;;8.50;89.10;;;;;;5075373;28;20603;-49
2021/01/24 01:52:01;;;;;;;3.92;1.58;;;8.50;89.10;;;;;;5075398;28;20020;-49
2021/01/24 01:54:27;;;;;;;1.80;1.35;;;8.50;88.60;;;;;;5040272;28;20066;-49
2021/01/24 01:56:54;;;;;;;5.90;2.30;;;8.50;88.60;;;;;;5075533;28;20028;-49
2021/01/24 01:59:20;;;;;;;9.07;4.07;;;8.50;88.90;;;;;;5076049;28;20166;-49
2021/01/24 02:02:23;;;;;;;8.68;4.03;;;8.50;88.40;;;;;;5075336;28;20460;-48
2021/01/24 02:05:01;;;;;;;5.57;2.88;;;8.50;88.40;;;;;;5060448;28;20029;-49
2021/01/24 02:07:59;;;;;;;5.13;2.38;;;8.50;88.90;;;;;;5075284;28;20025;-49
2021/01/24 02:10:29;;;;;;;7.80;3.30;;;8.40;88.60;;;;;;4974558;28;20068;-49
2021/01/24 02:13:05;;;;;;;7.13;3.50;;;8.50;88.20;;;;;;4973996;28;20562;-49
2021/01/24 02:15:32;;;;;;;7.72;2.45;;;8.60;87.90;;;;;;4974432;28;20521;-49
2021/01/24 02:18:04;;;;;;;2.92;1.65;;;8.70;87.70;;;;;;4974203;28;20031;-49
2021/01/24 02:21:06;;;;;;;3.58;1.73;;;8.60;87.30;;;;;;4974308;28;20057;-49
2021/01/24 02:23:33;;;;;;;2.95;1.83;;;8.50;87.90;;;;;;4973733;28;20458;-49
2021/01/24 02:26:19;;;;;;;3.28;1.83;;;8.50;87.90;;;;;;4974018;28;20503;-48
2021/01/24 02:29:04;;;;;;;2.72;1.65;;;8.40;87.90;;;;;;4957784;28;20050;-49
2021/01/24 02:31:33;;;;;;;3.50;1.70;;;8.40;87.90;;;;;;4973895;28;20442;-49
2021/01/24 02:34:00;;;;;;;2.97;1.55;;;8.40;88.00;;;;;;4973611;28;20039;-49
2021/01/24 02:36:28;;;;;;;4.40;1.80;;;8.40;88.10;;;;;;4973760;28;20118;-49
2021/01/24 02:38:55;;;;;;;3.92;1.95;;;8.40;87.50;;;;;;4973889;28;20465;-49
2021/01/24 02:41:21;;;;;;;3.47;1.88;;;8.50;87.20;;;;;;4973989;28;20050;-49
2021/01/24 02:43:49;;;;;;;5.35;2.25;;;8.50;86.70;;;;;;4973413;28;20386;-49
2021/01/24 02:46:16;;;;;;;3.80;2.35;;;8.50;86.40;;;;;;5001826;28;20055;-49
2021/01/24 02:48:49;;;;;;;3.47;2.13;;;8.60;86.50;;;;;;5032387;28;20033;-49
2021/01/24 02:51:16;;;;;;;3.60;1.63;;;8.60;85.90;;;;;;5031285;28;20053;-49
2021/01/24 02:53:44;;;;;;;5.20;2.58;;;8.80;85.20;;;;;;5031868;28;20029;-49
2021/01/24 02:56:10;;;;;;;3.97;1.77;;;8.90;84.50;;;;;;5032105;28;20044;-49
2021/01/24 02:58:37;;;;;;;2.90;1.67;;;9.00;83.70;;;;;;5031920;28;20033;-49
2021/01/24 03:01:03;;;;;;;6.15;1.98;;;9.10;83.30;;;;;;5032048;28;20393;-49
2021/01/24 03:03:29;;;;;;;4.88;2.40;;;9.20;82.40;;;;;;5015705;28;20038;-49
2021/01/24 03:05:55;;;;;;;4.07;1.85;;;9.30;82.00;;;;;;5015397;28;20463;-49
2021/01/24 03:08:21;;;;;;;4.18;1.80;;;9.30;81.70;;;;;;5031775;28;20030;-49
2021/01/24 03:10:47;;;;;;;3.33;1.77;;;9.10;82.20;;;;;;5031621;28;20038;-49
2021/01/24 03:13:42;;;;;;;3.03;1.73;;;9.10;82.60;;;;;;5031729;28;20429;-49
2021/01/24 03:16:09;;;;;;;2.30;1.00;;;9.10;82.10;;;;;;5031765;28;20029;-49
2021/01/24 03:18:38;;;;;;;1.33;1.05;;;9.00;82.50;;;;;;5053694;28;20432;-49
2021/01/24 03:21:05;;;;;;;2.92;1.40;;;8.90;82.80;;;;;;5053526;28;20128;-49
2021/01/24 03:23:32;;;;;;;2.50;1.33;;;8.80;83.50;;;;;;5051706;28;20128;-49
2021/01/24 03:25:59;;;;;;;3.40;1.60;;;8.60;84.10;;;;;;5053625;28;20037;-55
2021/01/24 03:28:25;;;;;;;3.97;1.50;;;8.60;84.40;;;;;;5053573;28;20047;-49
2021/01/24 03:30:51;;;;;;;3.83;1.80;;;8.60;84.40;;;;;;5053324;28;20544;-49
2021/01/24 03:33:17;;;;;;;3.20;1.40;;;8.70;84.20;;;;;;5053479;28;20025;-49
2021/01/24 03:35:43;;;;;;;3.35;1.50;;;8.70;83.90;;;;;;5051593;28;20120;-49
2021/01/24 03:38:09;;;;;;;4.03;1.90;;;8.80;83.80;;;;;;5053424;28;20103;-49
2021/01/24 03:40:34;;;;;;;5.15;1.80;;;8.90;82.90;;;;;;5073653;28;20041;-49
2021/01/24 03:43:00;;;;;;;3.47;2.10;;;8.90;82.80;;;;;;5073229;28;20064;-48
2021/01/24 03:45:26;;;;;;;3.45;1.50;;;8.90;82.30;;;;;;5073367;28;20460;-49
2021/01/24 03:47:52;;;;;;;3.17;1.95;;;8.90;82.60;;;;;;5073246;28;20024;-49
2021/01/24 03:50:18;;;;;;;5.40;2.53;;;8.70;83.20;;;;;;5021847;28;20041;-49
2021/01/24 03:52:43;;;;;;;6.47;4.18;;;8.60;83.80;;;;;;5073076;28;20036;-49
2021/01/24 03:55:09;;;;;;;12.15;7.95;;;8.60;83.70;;;;;;5073371;28;20029;-49
2021/01/24 03:57:35;;;;;;;12.10;7.05;;;8.60;83.80;;;;;;5021573;28;20052;-49
2021/01/24 04:00:04;;;;;;;11.88;8.35;;;8.40;84.30;;;;;;5072998;28;20115;-49
2021/01/24 04:02:29;;;;;;;8.52;5.43;;;8.40;84.80;;;;;;5006120;28;20388;-49
2021/01/24 04:04:56;;;;;;;12.90;7.63;;;8.20;85.20;;;;;;5077193;28;20029;-49
2021/01/24 04:07:22;;;;;;;4.82;2.58;;;8.20;85.50;;;;;;5077138;28;20025;-49
2021/01/24 04:09:48;;;;;;;8.48;4.03;;;8.20;85.40;;;;;;5077054;28;20460;-49
2021/01/24 04:12:13;;;;;;;11.18;6.82;;;8.00;86.00;;;;;;5077171;28;20028;-49
2021/01/24 04:14:39;;;;;;;15.25;9.27;;;7.90;87.10;;;;;;5076959;28;20052;-49
2021/01/24 04:17:05;;;;;;;12.73;8.27;;;7.80;87.50;;;;;;5076894;28;20036;-49
2021/01/24 04:19:32;;;;;;;7.95;5.20;;;7.70;88.00;;;;;;5077014;28;20454;-49
2021/01/24 04:21:58;;;;;;;6.53;4.55;;;7.80;87.60;;;;;;5076732;28;20387;-49
2021/01/24 04:24:24;;;;;;;7.57;4.43;;;8.00;87.20;;;;;;5077033;28;20028;-49
2021/01/24 04:26:51;;;;;;;5.95;3.58;;;7.90;87.10;;;;;;5076586;28;20024;-49
2021/01/24 04:29:17;;;;;;;7.90;4.85;;;8.00;87.10;;;;;;5041974;28;20046;-49
2021/01/24 04:31:43;;;;;;;11.93;6.50;;;8.00;87.10;;;;;;5076682;28;20434;-49
2021/01/24 04:34:09;;;;;;;21.23;10.85;;;8.00;87.10;;;;;;5077128;28;20025;-49
2021/01/24 04:36:35;;;;;;;13.48;7.13;;;7.90;87.20;;;;;;5076490;28;20040;-49
2021/01/24 04:39:01;;;;;;;9.55;4.78;;;7.90;87.50;;;;;;5076837;28;20052;-49
2021/01/24 04:41:27;;;;;;;6.65;3.42;;;7.90;87.40;;;;;;4928394;28;20042;-49
2021/01/24 04:43:52;;;;;;;3.72;2.78;;;7.90;87.50;;;;;;5076940;28;20463;-49
2021/01/24 04:46:18;;;;;;;5.65;3.25;;;8.10;87.20;;;;;;5076605;28;20024;-49
2021/01/24 04:48:45;;;;;;;4.13;3.00;;;8.10;86.50;;;;;;5076408;28;20490;-49
2021/01/24 04:51:11;;;;;;;3.97;2.95;;;8.30;86.30;;;;;;5076153;28;20040;-49
2021/01/24 04:53:39;;;;;;;6.45;2.42;;;8.50;85.40;;;;;;5076428;28;20036;-49
2021/01/24 04:56:05;;;;;;;5.28;2.60;;;8.60;84.60;;;;;;5076502;28;20029;-49
2021/01/24 04:58:31;;;;;;;4.80;3.20;;;8.80;84.70;;;;;;5076291;28;20029;-49
2021/01/24 05:00:57;;;;;;;3.55;2.70;;;8.80;83.70;;;;;;5076076;28;20029;-49
2021/01/24 05:03:22;;;;;;;3.45;2.15;;;8.60;84.40;;;;;;5076393;28;20518;-49
2021/01/24 05:05:48;;;;;;;3.85;2.20;;;8.50;84.40;;;;;;5076319;28;20029;-49
2021/01/24 05:08:16;;;;;;;4.68;2.42;;;8.50;84.60;;;;;;5075871;28;20043;-49
2021/01/24 05:10:45;;;;;;;3.70;1.95;;;8.50;84.70;;;;;;5073027;28;20419;-49
2021/01/24 05:13:11;;;;;;;6.50;3.53;;;8.40;84.90;;;;;;5075630;28;20107;-49
2021/01/24 05:15:37;;;;;;;9.07;3.78;;;8.30;85.10;;;;;;5075730;28;20063;-49
2021/01/24 05:18:04;;;;;;;9.23;5.05;;;8.40;85.60;;;;;;5075763;28;20024;-49
2021/01/24 05:20:31;;;;;;;7.70;4.32;;;8.40;85.70;;;;;;5075897;28;20388;-49
2021/01/24 05:22:58;;;;;;;7.32;4.38;;;8.30;86.00;;;;;;5075755;28;20379;-49
2021/01/24 05:25:28;;;;;;;5.85;3.83;;;8.30;85.70;;;;;;5075764;28;20028;-49
2021/01/24 05:27:53;;;;;;;7.63;4.07;;;8.20;86.20;;;;;;5075597;28;20380;-49
2021/01/24 05:30:31;;;;;;;7.13;3.83;;;8.20;86.50;;;;;;5075522;28;20089;-49
2021/01/24 05:33:00;;;;;;;5.03;3.50;;;8.30;86.00;;;;;;4977641;28;20549;-49
2021/01/24 05:35:27;;;;;;;6.10;4.40;;;8.40;85.80;;;;;;5075840;28;20029;-49
2021/01/24 05:37:53;;;;;;;6.70;4.25;;;8.50;85.30;;;;;;5075525;28;20021;-49
2021/01/24 05:40:19;;;;;;;7.72;5.00;;;8.60;85.30;;;;;;5040304;28;20056;-49
2021/01/24 05:42:46;;;;;;;6.20;3.95;;;8.50;84.80;;;;;;5075502;28;20491;-49
2021/01/24 05:45:14;;;;;;;8.73;5.50;;;8.60;84.90;;;;;;5075356;28;20112;-49
2021/01/24 05:47:42;;;;;;;7.93;4.97;;;8.40;85.70;;;;;;5075472;28;20028;-49
2021/01/24 05:50:10;;;;;;;8.00;3.60;;;8.40;85.40;;;;;;5074966;28;20031;-49
2021/01/24 05:52:38;;;;;;;8.45;4.82;;;8.50;85.10;;;;;;5040149;28;20042;-49
2021/01/24 05:55:06;;;;;;;13.77;6.70;;;8.60;84.60;;;;;;5075038;28;20039;-49
2021/01/24 05:57:37;;;;;;;9.25;5.30;;;8.60;84.40;;;;;;5075110;28;20025;-49
2021/01/24 06:00:05;;;;;;;7.07;3.97;;;8.60;84.90;;;;;;5075556;28;20034;-49
2021/01/24 06:02:31;;;;;;;5.88;3.50;;;8.40;85.10;;;;;;4974576;28;20124;-49
2021/01/24 06:04:57;;;;;;;3.97;2.38;;;8.20;86.10;;;;;;5075191;28;20024;-49
2021/01/24 06:07:24;;;;;;;6.00;3.45;;;8.00;86.80;;;;;;5039560;28;20082;-49
2021/01/24 06:09:50;;;;;;;3.72;2.25;;;8.20;87.10;;;;;;5074820;28;20031;-49
2021/01/24 06:12:16;;;;;;;3.72;2.20;;;8.30;86.70;;;;;;5074707;28;20111;-49
2021/01/24 06:14:49;;;;;;;4.82;2.90;;;8.40;86.30;;;;;;5074789;28;20032;-49
2021/01/24 06:17:30;;;;;;;5.10;3.20;;;8.40;86.10;;;;;;5074630;28;20028;-49
2021/01/24 06:19:59;;;;;;;5.65;2.78;;;8.50;86.20;;;;;;5074628;28;20025;-49
2021/01/24 06:22:47;;;;;;;7.00;2.70;;;8.50;85.30;;;;;;5074750;28;20115;-49
2021/01/24 06:25:26;;;;;;;4.05;2.38;;;8.60;85.40;;;;;;5074490;28;20032;-49
2021/01/24 06:27:58;;;;;;;4.57;2.78;;;8.70;85.10;;;;;;5074292;28;20472;-49
2021/01/24 06:30:26;;;;;;;5.13;2.33;;;8.60;85.80;;;;;;5074815;28;20115;-49
2021/01/24 06:32:52;;;;;;;4.47;2.50;;;8.60;85.90;;;;;;5039273;28;20380;-49
2021/01/24 06:35:23;;;;;;;4.25;2.47;;;8.50;85.70;;;;;;5074115;28;20024;-49
2021/01/24 06:38:00;;;;;;;4.10;2.58;;;8.50;86.20;;;;;;5023564;28;20517;-49
2021/01/24 06:40:32;;;;;;;14.05;7.93;;;8.20;87.20;;;;;;5074072;28;20040;-49
2021/01/24 06:43:06;;;;;;;63.13;33.42;;;7.90;88.70;;;;;;5074308;28;20380;-49
2021/01/24 06:45:32;;;;;;;7.15;4.43;;;7.70;89.50;;;;;;4988571;28;20060;-49
2021/01/24 06:48:01;;;;;;;8.65;5.32;;;7.50;90.20;;;;;;5073405;28;20035;-49
2021/01/24 06:50:48;;;;;;;8.63;4.53;;;7.60;90.10;;;;;;5073163;28;20028;-49
2021/01/24 06:53:21;;;;;;;5.68;2.75;;;7.60;89.60;;;;;;5073245;28;20055;-49
2021/01/24 06:55:58;;;;;;;8.07;4.00;;;7.60;90.10;;;;;;5073370;28;20081;-49
2021/01/24 06:58:26;;;;;;;7.10;3.33;;;7.70;89.70;;;;;;5072796;28;20452;-49
2021/01/24 07:01:12;;;;;;;6.40;3.45;;;7.60;90.00;;;;;;5072750;28;20459;-49
2021/01/24 07:03:38;;;;;;;5.28;3.30;;;7.70;89.80;;;;;;5072752;28;20032;-49
2021/01/24 07:06:33;;;;;;;8.77;3.75;;;7.70;89.60;;;;;;5073198;28;20081;-49
2021/01/24 07:08:59;;;;;;;7.15;3.65;;;7.70;89.60;;;;;;5061239;28;20503;-49
2021/01/24 07:11:47;;;;;;;8.40;4.15;;;7.80;89.40;;;;;;5021055;28;20124;-49
2021/01/24 07:14:32;;;;;;;5.38;2.78;;;7.90;89.10;;;;;;5054127;28;20037;-49
2021/01/24 07:17:06;;;;;;;8.85;3.75;;;7.90;88.80;;;;;;5072739;28;20085;-49
2021/01/24 07:19:34;;;;;;;10.25;5.85;;;8.10;88.30;;;;;;5072606;28;20032;-49
2021/01/24 07:22:01;;;;;;;28.30;18.95;;;8.40;87.60;;;;;;5075301;28;20523;-49
2021/01/24 07:24:27;;;;;;;11.27;8.05;;;9.20;85.00;;;;;;5086635;28;20036;-49
2021/01/24 07:26:54;;;;;;;6.65;4.50;;;9.80;82.90;;;;;;5092590;28;20024;-49
2021/01/24 07:29:21;;;;;;;6.40;4.20;;;10.10;80.90;;;;;;5092558;28;20082;-49
2021/01/24 07:31:48;;;;;;;7.55;4.30;;;10.60;79.10;;;;;;5056871;28;20051;-49
2021/01/24 07:34:14;;;;;;;8.75;3.88;;;11.30;77.70;;;;;;5092503;28;20028;-49
2021/01/24 07:36:46;;;;;;;6.05;3.97;;;11.80;74.90;;;;;;5092055;28;20028;-49
2021/01/24 07:39:11;;;;;;;9.63;7.70;;;11.60;75.30;;;;;;5057463;28;20135;-49
2021/01/24 07:41:37;;;;;;;5.80;4.32;;;12.30;73.50;;;;;;5092316;28;20059;-49
2021/01/24 07:44:03;;;;;;;7.85;5.28;;;12.90;70.10;;;;;;5092374;28;20479;-49
2021/01/24 07:46:29;;;;;;;6.28;4.97;;;14.10;68.40;;;;;;5092389;28;20084;-49
2021/01/24 07:48:55;;;;;;;7.20;4.75;;;14.90;64.80;;;;;;5093276;28;20035;-52
2021/01/24 07:51:20;;;;;;;10.05;5.43;;;16.30;62.60;;;;;;5024847;28;20106;-49
2021/01/24 07:53:47;;;;;;;8.10;5.60;;;;;;;;;;5093307;28;20027;-49
2021/01/24 07:56:13;;;;;;;6.65;5.30;;;;;;;;;;5093449;28;20028;-49
2021/01/24 07:58:40;;;;;;;7.28;5.28;;;;;;;;;;5093263;28;20384;-49
2021/01/24 08:01:05;;;;;;;9.80;5.80;;;18.10;76.90;;;;;;5093335;28;20036;-48
2021/01/24 08:03:34;;;;;;;7.55;5.03;;;18.10;59.10;;;;;;5082906;28;20024;-48
2021/01/24 08:06:07;;;;;;;7.47;5.25;;;19.00;53.10;;;;;;5081965;28;20028;-47
2021/01/24 08:08:35;;;;;;;9.88;7.28;;;;;;;;;;5083602;28;20020;-47
2021/01/24 08:11:01;;;;;;;9.15;6.55;;;21.10;77.10;;;;;;5082619;28;20075;-48
2021/01/24 08:13:27;;;;;;;8.05;5.60;;;;;;;;;;5081820;28;20038;-48
2021/01/24 08:15:54;;;;;;;6.55;5.68;;;21.90;44.00;;;;;;5072956;28;20028;-47
2021/01/24 08:18:21;;;;;;;7.60;5.40;;;22.70;42.80;;;;;;5073126;28;20398;-49
2021/01/24 08:20:47;;;;;;;23.63;16.65;;;23.20;43.50;;;;;;5072912;28;20036;-47
2021/01/24 08:23:14;;;;;;;9.30;6.85;;;23.50;42.40;;;;;;5072899;28;20380;-48
2021/01/24 08:25:40;;;;;;;10.73;6.22;;;23.40;40.50;;;;;;5072837;28;20036;-48
2021/01/24 08:28:08;;;;;;;6.68;4.32;;;;;;;;;;5073131;28;20074;-47
2021/01/24 08:30:43;;;;;;;11.00;5.75;;;21.10;42.40;;;;;;5037604;28;20041;-46
2021/01/24 08:33:12;;;;;;;6.45;3.97;;;18.90;48.10;;;;;;5072915;28;20391;-48
2021/01/24 08:35:39;;;;;;;6.10;3.92;;;18.40;50.20;;;;;;5072788;28;20060;-47
2021/01/24 08:38:05;;;;;;;7.60;4.50;;;18.10;51.70;;;;;;5072963;28;20081;-48
2021/01/24 08:40:37;;;;;;;6.55;5.00;;;18.50;50.80;;;;;;5072608;28;20044;-48
2021/01/24 08:43:04;;;;;;;7.10;5.70;;;18.90;50.30;;;;;;5072859;28;20101;-46
2021/01/24 08:45:30;;;;;;;8.77;6.53;;;20.00;49.90;;;;;;5073022;28;20032;-47
2021/01/24 08:48:00;;;;;;;16.05;10.48;;;20.40;48.30;;;;;;5072980;28;20503;-48
2021/01/24 08:50:30;;;;;;;13.57;9.73;;;20.50;49.80;;;;;;5075276;28;20373;-47
2021/01/24 08:52:57;;;;;;;25.25;20.08;;;20.80;47.80;;;;;;5076393;28;20048;-46
2021/01/24 08:55:24;;;;;;;10.90;8.48;;;22.20;52.10;;;;;;5076094;28;20034;-47
2021/01/24 08:57:50;;;;;;;8.85;7.47;;;20.80;54.00;;;;;;5076152;28;20021;-47
2021/01/24 09:00:17;;;;;;;10.63;7.00;;;20.00;46.20;;;;;;5076302;28;20024;-46
2021/01/24 09:02:43;;;;;;;17.80;13.35;;;19.60;47.20;;;;;;5076272;28;20032;-47
2021/01/24 09:05:13;;;;;;;12.13;8.32;;;20.40;52.70;;;;;;5076186;28;20028;-48
2021/01/24 09:07:46;;;;;;;9.55;6.00;;;20.80;47.30;;;;;;5076068;28;20047;-47
2021/01/24 09:10:20;;;;;;;7.75;5.90;;;19.40;47.70;;;;;;5075864;28;20037;-47
2021/01/24 09:12:58;;;;;;;6.75;5.15;;;19.30;47.20;;;;;;5076011;28;20115;-47
2021/01/24 09:15:25;;;;;;;5.55;4.07;;;19.60;48.50;;;;;;5076004;28;20017;-47
2021/01/24 09:17:52;;;;;;;5.90;4.38;;;19.20;46.50;;;;;;5075977;28;20349;-53
2021/01/24 09:20:23;;;;;;;7.97;4.88;;;18.30;49.20;;;;;;5075901;28;20025;-47
2021/01/24 09:22:50;;;;;;;5.50;3.65;;;17.50;50.30;;;;;;5075789;28;20036;-47
2021/01/24 09:25:17;;;;;;;6.07;3.40;;;17.20;49.70;;;;;;5076008;28;20103;-47
2021/01/24 09:27:42;;;;;;;4.97;3.55;;;17.20;50.70;;;;;;5040344;28;20037;-46
2021/01/24 09:30:11;;;;;;;5.18;3.67;;;17.00;51.70;;;;;;5075559;28;20545;-47
2021/01/24 09:32:37;;;;;;;6.40;4.88;;;17.20;51.80;;;;;;5023733;28;20480;-47
2021/01/24 09:35:04;;;;;;;7.97;7.28;;;17.80;52.70;;;;;;5075414;28;20040;-47
2021/01/24 09:37:29;;;;;;;11.90;8.73;;;18.60;51.20;;;;;;5075444;28;20025;-52
2021/01/24 09:39:55;;;;;;;7.40;4.32;;;;;;;;;;5075106;28;20051;-52
2021/01/24 09:42:22;;;;;;;8.55;6.38;;;;;;;;;;5075404;28;20033;-52
2021/01/24 09:44:48;;;;;;;8.27;6.70;;;;;;;;;;5075251;28;20028;-52
2021/01/24 09:47:14;;;;;;;6.95;4.53;;;;;;;;;;5075374;28;20047;-52
2021/01/24 09:49:40;;;;;;;10.77;6.93;;;20.00;72.30;;;;;;5074800;28;20069;-52
2021/01/24 09:52:06;;;;;;;10.77;6.38;;;;;;;;;;5075238;28;20384;-52
2021/01/24 09:54:32;;;;;;;21.33;14.07;;;20.40;66.60;;;;;;5075342;28;20017;-53
2021/01/24 09:56:58;;;;;;;14.50;9.35;;;20.40;69.80;;;;;;5075135;28;20140;-52
2021/01/24 09:59:23;;;;;;;10.45;7.93;;;20.60;69.60;;;;;;5074931;28;20040;-52
2021/01/24 10:01:49;;;;;;;8.25;7.43;;;;;;;;;;5074659;28;20096;-50
2021/01/24 10:04:15;;;;;;;9.85;8.50;;;22.00;57.10;;;;;;5074935;28;20027;-52
2021/01/24 10:06:41;;;;;;;12.65;11.60;;;;;;;;;;5006605;28;20119;-51
2021/01/24 10:09:08;;;;;;;14.15;13.15;;;23.00;58.60;;;;;;5074999;28;20032;-52
2021/01/24 10:11:34;;;;;;;16.52;15.02;;;;;;;;;;5074784;28;20029;-52
2021/01/24 10:14:00;;;;;;;14.43;13.23;;;;;;;;;;5074572;28;20161;-53
2021/01/24 10:16:28;;;;;;;14.45;13.25;;;25.60;35.70;;;;;;5074726;28;20024;-52
2021/01/24 10:18:54;;;;;;;16.65;15.40;;;;;;;;;;5056860;28;20043;-53
2021/01/24 10:21:20;;;;;;;18.08;16.63;;;26.30;35.30;;;;;;5074586;28;20023;-52
2021/01/24 10:23:46;;;;;;;30.48;28.58;;;26.10;35.80;;;;;;5074745;28;20407;-52
2021/01/24 10:26:11;;;;;;;24.83;23.25;;;26.50;35.50;;;;;;5074655;28;20029;-52
2021/01/24 10:28:37;;;;;;;18.50;17.50;;;26.30;34.30;;;;;;5074581;28;20498;-52
2021/01/24 10:31:03;;;;;;;13.90;13.00;;;27.00;34.00;;;;;;5074462;28;20040;-52
2021/01/24 10:33:28;;;;;;;5.25;4.43;;;26.80;32.60;;;;;;5074530;28;20029;-53
2021/01/24 10:35:54;;;;;;;18.65;17.52;;;26.40;33.10;;;;;;5074824;28;20035;-53
2021/01/24 10:38:21;;;;;;;30.33;28.92;;;25.40;33.50;;;;;;5074096;28;20025;-52
2021/01/24 10:40:48;;;;;;;28.83;27.45;;;25.60;33.20;;;;;;5074174;28;20033;-52
2021/01/24 10:43:14;;;;;;;69.53;66.28;;;25.90;32.70;;;;;;5074392;28;20029;-52
2021/01/24 10:45:40;;;;;;;36.22;34.45;;;26.40;32.50;;;;;;5038979;28;20139;-52
2021/01/24 10:48:08;;;;;;;7.00;6.40;;;26.30;31.20;;;;;;5039008;28;20456;-52
2021/01/24 10:50:37;;;;;;;23.42;22.08;;;25.40;32.40;;;;;;5022357;28;20124;-52
2021/01/24 10:53:04;;;;;;;28.00;26.05;;;25.10;34.00;;;;;;5039061;28;20063;-48
2021/01/24 10:55:31;;;;;;;20.05;18.52;;;25.10;33.40;;;;;;5074006;28;20047;-49
2021/01/24 10:57:56;;;;;;;8.00;4.65;;;25.10;33.80;;;;;;5073885;28;20055;-48
2021/01/24 11:00:23;;;;;;;4.60;2.67;;;24.70;33.50;;;;;;5074151;28;20021;-48
2021/01/24 11:02:49;;;;;;;4.90;3.97;;;23.50;34.60;;;;;;5073749;28;20020;-48
2021/01/24 11:05:14;;;;;;;5.15;3.13;;;23.60;39.80;;;;;;5038844;28;20042;-48
2021/01/24 11:07:40;;;;;;;7.68;6.53;;;22.80;35.70;;;;;;5074195;28;20020;-43
2021/01/24 11:10:07;;;;;;;8.73;6.68;;;;;;;;;;5063669;28;20041;-48
2021/01/24 11:12:33;;;;;;;8.63;5.90;;;22.30;70.30;;;;;;5037664;28;20076;-48
2021/01/24 11:14:59;;;;;;;7.28;4.45;;;22.50;62.50;;;;;;5083554;28;20111;-49
2021/01/24 11:17:25;;;;;;;10.48;9.40;;;22.90;66.80;;;;;;5038076;28;20086;-47
2021/01/24 11:19:52;;;;;;;9.90;8.02;;;22.40;64.80;;;;;;5021665;28;20111;-45
2021/01/24 11:22:18;;;;;;;6.30;4.95;;;;;;;;;;5072369;28;20155;-49
2021/01/24 11:24:45;;;;;;;6.28;3.83;;;21.20;80.00;;;;;;5072284;28;20025;-48
2021/01/24 11:27:11;;;;;;;6.05;3.72;;;;;;;;;;5072407;28;20422;-45
2021/01/24 11:29:37;;;;;;;8.68;5.70;;;;;;;;;;5072301;28;20020;-47
2021/01/24 11:32:03;;;;;;;8.48;7.72;;;;;;;;;;5036412;28;20066;-46
2021/01/24 11:34:29;;;;;;;7.95;4.72;;;;;;;;;;5072395;28;20028;-47
2021/01/24 11:36:55;;;;;;;6.18;3.85;;;;;;;;;;5036366;28;20109;-49
2021/01/24 11:39:22;;;;;;;5.75;2.63;;;;;;;;;;5071768;28;20048;-49
2021/01/24 11:41:49;;;;;;;4.78;3.20;;;;;;;;;;5072181;28;20052;-46
2021/01/24 11:44:15;;;;;;;8.07;5.18;;;;;;;;;;5072324;28;20086;-48
2021/01/24 11:46:41;;;;;;;9.18;5.78;;;20.00;41.80;;;;;;5072013;28;20428;-48
2021/01/24 11:49:07;;;;;;;5.93;3.70;;;20.00;42.80;;;;;;5071723;28;20062;-48
2021/01/24 11:51:33;;;;;;;8.88;4.60;;;19.80;42.30;;;;;;5072107;28;20395;-49
2021/01/24 11:53:59;;;;;;;6.70;4.15;;;19.50;44.70;;;;;;5071885;28;20108;-48
2021/01/24 11:56:24;;;;;;;7.18;4.55;;;19.30;43.50;;;;;;5071877;28;20028;-46
2021/01/24 11:58:50;;;;;;;9.15;4.70;;;19.00;45.10;;;;;;5081841;28;20363;-46
2021/01/24 12:01:16;;;;;;;8.30;5.50;;;18.80;45.50;;;;;;5090364;28;20533;-45
2021/01/24 12:03:42;;;;;;;8.20;4.03;;;18.70;47.50;;;;;;5092050;28;20539;-45
2021/01/24 12:06:07;;;;;;;6.75;3.67;;;18.50;47.80;;;;;;5091968;28;20498;-49
2021/01/24 12:08:33;;;;;;;7.22;4.47;;;18.20;49.30;;;;;;5092096;28;20111;-48
2021/01/24 12:10:59;;;;;;;9.15;6.25;;;17.90;48.90;;;;;;5073203;28;20514;-47
2021/01/24 12:13:25;;;;;;;8.75;4.63;;;17.80;50.50;;;;;;5092145;28;20043;-49
2021/01/24 12:15:51;;;;;;;5.72;3.20;;;17.60;49.70;;;;;;5039009;28;20065;-45
2021/01/24 12:18:17;;;;;;;6.40;2.70;;;17.40;51.30;;;;;;5091767;28;20126;-45
2021/01/24 12:20:42;;;;;;;3.33;2.17;;;17.20;51.70;;;;;;5056169;28;20040;-45
2021/01/24 12:23:08;;;;;;;8.48;3.08;;;16.90;51.80;;;;;;5092639;28;20024;-48
2021/01/24 12:25:34;;;;;;;5.65;2.72;;;16.90;52.60;;;;;;5095838;28;20032;-45
2021/01/24 12:28:00;;;;;;;6.78;3.60;;;16.70;54.00;;;;;;5095319;28;20552;-47
2021/01/24 12:30:26;;;;;;;6.32;2.40;;;16.50;55.30;;;;;;5059377;28;20040;-45
2021/01/24 12:32:52;;;;;;;4.93;2.80;;;16.40;54.10;;;;;;5095851;28;20052;-47
2021/01/24 12:35:18;;;;;;;4.97;3.17;;;16.20;55.40;;;;;;5095715;28;20125;-47
2021/01/24 12:37:44;;;;;;;4.97;2.30;;;16.10;57.10;;;;;;5095618;28;20032;-48
2021/01/24 12:40:10;;;;;;;4.72;2.33;;;16.00;58.50;;;;;;5095228;28;20040;-48
2021/01/24 12:42:36;;;;;;;5.72;1.88;;;15.90;58.70;;;;;;5043040;28;20044;-47
2021/01/24 12:45:03;;;;;;;3.72;2.25;;;;;;;;;;5095452;28;20036;-47
2021/01/24 12:47:29;;;;;;;5.25;2.30;;;15.80;58.00;;;;;;5043437;28;20476;-45
2021/01/24 12:49:55;;;;;;;5.55;2.00;;;15.70;59.50;;;;;;5095248;28;20036;-47
2021/01/24 12:52:21;;;;;;;7.78;3.20;;;15.60;60.00;;;;;;5042752;28;20044;-48
2021/01/24 12:54:46;;;;;;;7.93;4.70;;;15.60;60.40;;;;;;5042570;28;20063;-47
2021/01/24 12:57:12;;;;;;;10.60;5.70;;;15.50;60.40;;;;;;5095222;28;20040;-48
2021/01/24 12:59:40;;;;;;;7.88;4.10;;;15.50;60.60;;;;;;5095157;28;20060;-46